CTN030 LDSP-EDDM
Flight info
| Callsign | CTN030 |
|---|---|
| Flight time | 0h 56m |
| Altitude | 29000 |
| Route | LDSP/05 ZDA1W ZDA DCT ROPUS DCT RASTA DCT REDBU Q112 NAPSA NAPS1B EDDM/NAP26 26R |
| Aircraft | B736/M-SDE2E3FGHIRWXY/LB1 |
Departure
| Time | 2026-05-06 21:22 |
|---|---|
| Airport | Split Saint Jerome Airport (LDSP) |
Arrival
| Time | 2026-05-06 22:18 |
|---|---|
| Airport | Munich Airport (EDDM) |
| Time | Latitude | Longitude | Altitude | Speed | Heading |
|---|---|---|---|---|---|
| 2026-05-06 20:49 | 43.53691 | 16.29812 | 84 ft | 0 kts | 115° |
| 2026-05-06 21:19 | 43.53691 | 16.29813 | 80 ft | 0 kts | 115° |
| 2026-05-06 21:19 | 43.53691 | 16.29814 | 80 ft | 0 kts | 115° |
| 2026-05-06 21:19 | 43.53695 | 16.29824 | 70 ft | 2 kts | 45° |
| 2026-05-06 21:19 | 43.53709 | 16.29807 | 83 ft | 4 kts | 287° |
| 2026-05-06 21:20 | 43.53717 | 16.29746 | 80 ft | 8 kts | 265° |
| 2026-05-06 21:20 | 43.53690 | 16.29671 | 82 ft | 9 kts | 234° |
| 2026-05-06 21:20 | 43.53670 | 16.29601 | 84 ft | 7 kts | 300° |
| 2026-05-06 21:20 | 43.53673 | 16.29596 | 84 ft | 0 kts | 302° |
| 2026-05-06 21:21 | 43.53674 | 16.29593 | 84 ft | 1 kts | 302° |
| 2026-05-06 21:21 | 43.53689 | 16.29555 | 85 ft | 8 kts | 294° |
| 2026-05-06 21:21 | 43.53721 | 16.29487 | 84 ft | 11 kts | 16° |
| 2026-05-06 21:21 | 43.53915 | 16.29834 | 75 ft | 104 kts | 53° |
| 2026-05-06 21:22 | 43.54596 | 16.31014 | 208 ft | 201 kts | 52° |
| 2026-05-06 21:22 | 43.55458 | 16.32776 | 1026 ft | 248 kts | 70° |
| 2026-05-06 21:22 | 43.55679 | 16.35320 | 2058 ft | 288 kts | 101° |
| 2026-05-06 21:22 | 43.54994 | 16.37991 | 3611 ft | 306 kts | 121° |
| 2026-05-06 21:23 | 43.53636 | 16.40401 | 4774 ft | 336 kts | 142° |
| 2026-05-06 21:23 | 43.51497 | 16.41848 | 6024 ft | 347 kts | 168° |
| 2026-05-06 21:23 | 43.49239 | 16.42523 | 7968 ft | 335 kts | 166° |
| 2026-05-06 21:23 | 43.47032 | 16.43452 | 9742 ft | 323 kts | 168° |
| 2026-05-06 21:24 | 43.44793 | 16.43486 | 10896 ft | 321 kts | 195° |
| 2026-05-06 21:24 | 43.42848 | 16.42031 | 11910 ft | 323 kts | 224° |
| 2026-05-06 21:24 | 43.41651 | 16.39428 | 12886 ft | 330 kts | 251° |
| 2026-05-06 21:24 | 43.41345 | 16.36325 | 13941 ft | 333 kts | 262° |
| 2026-05-06 21:25 | 43.40728 | 16.33271 | 14864 ft | 332 kts | 243° |
| 2026-05-06 21:25 | 43.39528 | 16.30521 | 15878 ft | 332 kts | 235° |
| 2026-05-06 21:25 | 43.38194 | 16.27974 | 16890 ft | 333 kts | 233° |
| 2026-05-06 21:25 | 43.37026 | 16.25235 | 17910 ft | 334 kts | 249° |
| 2026-05-06 21:26 | 43.36637 | 16.22052 | 18904 ft | 337 kts | 268° |
| 2026-05-06 21:26 | 43.37039 | 16.18866 | 19851 ft | 342 kts | 286° |
| 2026-05-06 21:26 | 43.38135 | 16.15995 | 20804 ft | 348 kts | 303° |
| 2026-05-06 21:26 | 43.39865 | 16.13642 | 21829 ft | 352 kts | 315° |
| 2026-05-06 21:27 | 43.41789 | 16.11488 | 22875 ft | 350 kts | 317° |
| 2026-05-06 21:27 | 43.43672 | 16.09470 | 23873 ft | 347 kts | 317° |
| 2026-05-06 21:27 | 43.45571 | 16.07449 | 24784 ft | 343 kts | 317° |
| 2026-05-06 21:27 | 43.47473 | 16.05415 | 25738 ft | 339 kts | 316° |
| 2026-05-06 21:28 | 43.49290 | 16.03455 | 26704 ft | 333 kts | 316° |
| 2026-05-06 21:28 | 43.51116 | 16.01471 | 27717 ft | 326 kts | 315° |
| 2026-05-06 21:28 | 43.52858 | 15.99569 | 28642 ft | 324 kts | 314° |
| 2026-05-06 21:28 | 43.54655 | 15.97588 | 28996 ft | 339 kts | 314° |
| 2026-05-06 21:29 | 43.56550 | 15.95484 | 29019 ft | 362 kts | 315° |
| 2026-05-06 21:29 | 43.58577 | 15.93230 | 29038 ft | 385 kts | 315° |
| 2026-05-06 21:29 | 43.60716 | 15.90856 | 29014 ft | 406 kts | 316° |
| 2026-05-06 21:29 | 43.62968 | 15.88363 | 29021 ft | 424 kts | 316° |
| 2026-05-06 21:30 | 43.65325 | 15.85755 | 29011 ft | 441 kts | 316° |
| 2026-05-06 21:30 | 43.67767 | 15.83055 | 29019 ft | 456 kts | 316° |
| 2026-05-06 21:30 | 43.70273 | 15.80281 | 29017 ft | 469 kts | 316° |
| 2026-05-06 21:30 | 43.72844 | 15.77434 | 29002 ft | 480 kts | 316° |
| 2026-05-06 21:31 | 43.75471 | 15.74520 | 28999 ft | 488 kts | 316° |
| 2026-05-06 21:31 | 43.80789 | 15.68614 | 28979 ft | 489 kts | 316° |
| 2026-05-06 21:32 | 43.86088 | 15.62709 | 29006 ft | 489 kts | 316° |
| 2026-05-06 21:32 | 43.94055 | 15.53787 | 28997 ft | 489 kts | 316° |
| 2026-05-06 21:33 | 43.99335 | 15.47859 | 28998 ft | 488 kts | 316° |
| 2026-05-06 21:33 | 44.04583 | 15.41949 | 28999 ft | 489 kts | 316° |
| 2026-05-06 21:34 | 44.09968 | 15.36078 | 28985 ft | 494 kts | 323° |
| 2026-05-06 21:34 | 44.16316 | 15.32259 | 29007 ft | 500 kts | 334° |
| 2026-05-06 21:35 | 44.22792 | 15.28767 | 28999 ft | 499 kts | 334° |
| 2026-05-06 21:35 | 44.29238 | 15.25201 | 28997 ft | 498 kts | 333° |
| 2026-05-06 21:36 | 44.35660 | 15.21558 | 29006 ft | 497 kts | 333° |
| 2026-05-06 21:36 | 44.42069 | 15.17886 | 29004 ft | 498 kts | 333° |
| 2026-05-06 21:37 | 44.48476 | 15.14208 | 29018 ft | 498 kts | 333° |
| 2026-05-06 21:37 | 44.54855 | 15.10541 | 29006 ft | 499 kts | 333° |
| 2026-05-06 21:38 | 44.61284 | 15.06842 | 29013 ft | 498 kts | 333° |
| 2026-05-06 21:38 | 44.67702 | 15.03139 | 29002 ft | 499 kts | 333° |
| 2026-05-06 21:39 | 44.74125 | 14.99423 | 28990 ft | 499 kts | 333° |
| 2026-05-06 21:39 | 44.80536 | 14.95705 | 28993 ft | 499 kts | 333° |
| 2026-05-06 21:40 | 44.86934 | 14.91987 | 28993 ft | 499 kts | 333° |
| 2026-05-06 21:40 | 44.93314 | 14.88270 | 28988 ft | 499 kts | 333° |
| 2026-05-06 21:41 | 44.99733 | 14.84521 | 28994 ft | 498 kts | 333° |
| 2026-05-06 21:41 | 45.06150 | 14.80764 | 28984 ft | 499 kts | 333° |
| 2026-05-06 21:42 | 45.12563 | 14.77000 | 28978 ft | 499 kts | 333° |
| 2026-05-06 21:42 | 45.18997 | 14.73213 | 28988 ft | 501 kts | 332° |
| 2026-05-06 21:43 | 45.25400 | 14.69436 | 28957 ft | 502 kts | 332° |
| 2026-05-06 21:43 | 45.31844 | 14.65627 | 28973 ft | 502 kts | 332° |
| 2026-05-06 21:44 | 45.38294 | 14.61805 | 28987 ft | 501 kts | 332° |
| 2026-05-06 21:44 | 45.44735 | 14.57979 | 28993 ft | 501 kts | 332° |
| 2026-05-06 21:45 | 45.51147 | 14.54162 | 29015 ft | 499 kts | 332° |
| 2026-05-06 21:45 | 45.57521 | 14.50356 | 28977 ft | 495 kts | 332° |
| 2026-05-06 21:46 | 45.63869 | 14.46554 | 28975 ft | 495 kts | 332° |
| 2026-05-06 21:46 | 45.70237 | 14.42731 | 28965 ft | 496 kts | 332° |
| 2026-05-06 21:47 | 45.76557 | 14.38929 | 28948 ft | 495 kts | 332° |
| 2026-05-06 21:47 | 45.82907 | 14.35100 | 28945 ft | 495 kts | 332° |
| 2026-05-06 21:48 | 45.89259 | 14.31259 | 28985 ft | 496 kts | 331° |
| 2026-05-06 21:48 | 45.95643 | 14.27389 | 28952 ft | 498 kts | 331° |
| 2026-05-06 21:49 | 46.00965 | 14.24171 | 28937 ft | 499 kts | 332° |
| 2026-05-06 21:49 | 46.07362 | 14.20276 | 28948 ft | 498 kts | 331° |
| 2026-05-06 21:50 | 46.13776 | 14.16451 | 28943 ft | 500 kts | 333° |
| 2026-05-06 21:50 | 46.20271 | 14.12835 | 28933 ft | 500 kts | 334° |
| 2026-05-06 21:51 | 46.26768 | 14.09228 | 28963 ft | 502 kts | 333° |
| 2026-05-06 21:51 | 46.33289 | 14.05555 | 28943 ft | 503 kts | 333° |
| 2026-05-06 21:52 | 46.39772 | 14.01877 | 28936 ft | 501 kts | 333° |
| 2026-05-06 21:52 | 46.46272 | 13.98174 | 28934 ft | 502 kts | 333° |
| 2026-05-06 21:53 | 46.52771 | 13.94463 | 28921 ft | 501 kts | 333° |
| 2026-05-06 21:53 | 46.59283 | 13.90736 | 28939 ft | 502 kts | 333° |
| 2026-05-06 21:54 | 46.65750 | 13.87026 | 28948 ft | 503 kts | 333° |
| 2026-05-06 21:54 | 46.72259 | 13.83283 | 28923 ft | 503 kts | 333° |
| 2026-05-06 21:55 | 46.78768 | 13.79531 | 28944 ft | 502 kts | 333° |
| 2026-05-06 21:55 | 46.85270 | 13.75772 | 28922 ft | 502 kts | 333° |
| 2026-05-06 21:56 | 46.91755 | 13.72013 | 28930 ft | 502 kts | 332° |
| 2026-05-06 21:56 | 46.98208 | 13.68263 | 28943 ft | 503 kts | 333° |
| 2026-05-06 21:57 | 47.04727 | 13.64465 | 28955 ft | 503 kts | 332° |
| 2026-05-06 21:57 | 47.11244 | 13.60658 | 28945 ft | 503 kts | 332° |
| 2026-05-06 21:58 | 47.17767 | 13.56836 | 28933 ft | 505 kts | 332° |
| 2026-05-06 21:58 | 47.24285 | 13.53007 | 28921 ft | 505 kts | 332° |
| 2026-05-06 21:59 | 47.30830 | 13.49147 | 28923 ft | 508 kts | 332° |
| 2026-05-06 21:59 | 47.37400 | 13.45270 | 28929 ft | 508 kts | 332° |
| 2026-05-06 22:00 | 47.43918 | 13.41415 | 28441 ft | 510 kts | 332° |
| 2026-05-06 22:00 | 47.47200 | 13.39442 | 28044 ft | 508 kts | 330° |
| 2026-05-06 22:00 | 47.50313 | 13.37064 | 27632 ft | 501 kts | 322° |
| 2026-05-06 22:01 | 47.53059 | 13.34114 | 27230 ft | 474 kts | 313° |
| 2026-05-06 22:01 | 47.55535 | 13.31077 | 26780 ft | 447 kts | 313° |
| 2026-05-06 22:01 | 47.57846 | 13.28216 | 26440 ft | 421 kts | 312° |
| 2026-05-06 22:01 | 47.60068 | 13.25440 | 25926 ft | 414 kts | 312° |
| 2026-05-06 22:02 | 47.62251 | 13.22735 | 25564 ft | 404 kts | 313° |
| 2026-05-06 22:02 | 47.64391 | 13.20103 | 25195 ft | 396 kts | 313° |
| 2026-05-06 22:02 | 47.66495 | 13.17528 | 24836 ft | 389 kts | 313° |
| 2026-05-06 22:02 | 47.68576 | 13.14985 | 24485 ft | 385 kts | 313° |
| 2026-05-06 22:03 | 47.70636 | 13.12467 | 24179 ft | 383 kts | 314° |
| 2026-05-06 22:03 | 47.72687 | 13.09962 | 23834 ft | 380 kts | 314° |
| 2026-05-06 22:03 | 47.74723 | 13.07471 | 23478 ft | 378 kts | 314° |
| 2026-05-06 22:03 | 47.76751 | 13.04989 | 23068 ft | 376 kts | 314° |
| 2026-05-06 22:04 | 47.78768 | 13.02518 | 22658 ft | 375 kts | 314° |
| 2026-05-06 22:04 | 47.80777 | 13.00055 | 22266 ft | 374 kts | 314° |
| 2026-05-06 22:04 | 47.82784 | 12.97592 | 21855 ft | 373 kts | 314° |
| 2026-05-06 22:04 | 47.84777 | 12.95143 | 21470 ft | 372 kts | 314° |
| 2026-05-06 22:05 | 47.86745 | 12.92722 | 21086 ft | 371 kts | 314° |
| 2026-05-06 22:05 | 47.88757 | 12.90246 | 20703 ft | 370 kts | 314° |
| 2026-05-06 22:05 | 47.90712 | 12.87837 | 20328 ft | 369 kts | 314° |
| 2026-05-06 22:05 | 47.92689 | 12.85398 | 19953 ft | 369 kts | 314° |
| 2026-05-06 22:06 | 47.94647 | 12.82944 | 19590 ft | 366 kts | 311° |
| 2026-05-06 22:06 | 47.96315 | 12.80137 | 19247 ft | 357 kts | 299° |
| 2026-05-06 22:06 | 47.97615 | 12.76998 | 18894 ft | 353 kts | 295° |
| 2026-05-06 22:06 | 47.98847 | 12.73830 | 18536 ft | 353 kts | 295° |
| 2026-05-06 22:07 | 48.00076 | 12.70659 | 18178 ft | 352 kts | 295° |
| 2026-05-06 22:07 | 48.01308 | 12.67508 | 17770 ft | 350 kts | 295° |
| 2026-05-06 22:07 | 48.02539 | 12.64389 | 17364 ft | 345 kts | 295° |
| 2026-05-06 22:07 | 48.03753 | 12.61328 | 16967 ft | 340 kts | 295° |
| 2026-05-06 22:08 | 48.04945 | 12.58323 | 16575 ft | 334 kts | 295° |
| 2026-05-06 22:08 | 48.06121 | 12.55356 | 16184 ft | 330 kts | 296° |
| 2026-05-06 22:08 | 48.07294 | 12.52416 | 15801 ft | 327 kts | 296° |
| 2026-05-06 22:08 | 48.08444 | 12.49543 | 15427 ft | 324 kts | 296° |
| 2026-05-06 22:09 | 48.09596 | 12.46661 | 15048 ft | 322 kts | 296° |
| 2026-05-06 22:09 | 48.10741 | 12.43796 | 14680 ft | 319 kts | 296° |
| 2026-05-06 22:09 | 48.11875 | 12.40952 | 14322 ft | 317 kts | 296° |
| 2026-05-06 22:09 | 48.12999 | 12.38131 | 13967 ft | 315 kts | 296° |
| 2026-05-06 22:10 | 48.14144 | 12.35339 | 13566 ft | 315 kts | 301° |
| 2026-05-06 22:10 | 48.15761 | 12.33042 | 12895 ft | 328 kts | 320° |
| 2026-05-06 22:10 | 48.17652 | 12.31105 | 12265 ft | 330 kts | 321° |
| 2026-05-06 22:10 | 48.19564 | 12.29181 | 11632 ft | 332 kts | 322° |
| 2026-05-06 22:11 | 48.21484 | 12.27242 | 10993 ft | 332 kts | 322° |
| 2026-05-06 22:11 | 48.23400 | 12.25290 | 10379 ft | 333 kts | 321° |
| 2026-05-06 22:11 | 48.25311 | 12.23330 | 9756 ft | 332 kts | 321° |
| 2026-05-06 22:11 | 48.27214 | 12.21369 | 9111 ft | 331 kts | 321° |
| 2026-05-06 22:12 | 48.29096 | 12.19424 | 8455 ft | 322 kts | 321° |
| 2026-05-06 22:12 | 48.30908 | 12.17549 | 7815 ft | 310 kts | 321° |
| 2026-05-06 22:12 | 48.32627 | 12.15767 | 7199 ft | 298 kts | 321° |
| 2026-05-06 22:12 | 48.34276 | 12.14058 | 6621 ft | 277 kts | 321° |
| 2026-05-06 22:13 | 48.35802 | 12.12474 | 6000 ft | 259 kts | 321° |
| 2026-05-06 22:13 | 48.37245 | 12.10971 | 5369 ft | 246 kts | 321° |
| 2026-05-06 22:13 | 48.38505 | 12.09442 | 5069 ft | 218 kts | 305° |
| 2026-05-06 22:13 | 48.38924 | 12.07417 | 4696 ft | 198 kts | 265° |
| 2026-05-06 22:14 | 48.38601 | 12.05485 | 4425 ft | 183 kts | 258° |
| 2026-05-06 22:14 | 48.38366 | 12.03656 | 4184 ft | 175 kts | 264° |
| 2026-05-06 22:14 | 48.38221 | 12.01901 | 3956 ft | 160 kts | 265° |
| 2026-05-06 22:14 | 48.38100 | 12.00343 | 3790 ft | 142 kts | 265° |
| 2026-05-06 22:15 | 48.37987 | 11.98895 | 3590 ft | 138 kts | 265° |
| 2026-05-06 22:15 | 48.37875 | 11.97449 | 3418 ft | 140 kts | 266° |
| 2026-05-06 22:15 | 48.37762 | 11.96002 | 3235 ft | 139 kts | 264° |
| 2026-05-06 22:15 | 48.37624 | 11.94587 | 3350 ft | 140 kts | 264° |
| 2026-05-06 22:16 | 48.37504 | 11.93165 | 3320 ft | 135 kts | 265° |
| 2026-05-06 22:16 | 48.37393 | 11.91743 | 3126 ft | 139 kts | 265° |
| 2026-05-06 22:16 | 48.37293 | 11.90286 | 2923 ft | 140 kts | 265° |
| 2026-05-06 22:16 | 48.37196 | 11.88863 | 2778 ft | 131 kts | 264° |
| 2026-05-06 22:17 | 48.37099 | 11.87546 | 2529 ft | 124 kts | 264° |
| 2026-05-06 22:17 | 48.37003 | 11.86241 | 2234 ft | 129 kts | 261° |
| 2026-05-06 22:17 | 48.36886 | 11.84853 | 1975 ft | 138 kts | 261° |
| 2026-05-06 22:17 | 48.36790 | 11.83431 | 1693 ft | 135 kts | 262° |
| 2026-05-06 22:18 | 48.36691 | 11.82124 | 1518 ft | 115 kts | 260° |
| 2026-05-06 22:18 | 48.36603 | 11.81081 | 1466 ft | 86 kts | 264° |
| 2026-05-06 22:18 | 48.36551 | 11.80434 | 1459 ft | 42 kts | 265° |
| 2026-05-06 22:18 | 48.36523 | 11.80042 | 1457 ft | 25 kts | 263° |
| 2026-05-06 22:19 | 48.36484 | 11.79800 | 1463 ft | 23 kts | 242° |
| 2026-05-06 22:19 | 48.36419 | 11.79650 | 1462 ft | 4 kts | 236° |
| 2026-05-06 22:19 | 48.36415 | 11.79641 | 1462 ft | 0 kts | 236° |
| 2026-05-06 22:22 | 48.36414 | 11.79640 | 1462 ft | 0 kts | 236° |
| 2026-05-06 22:22 | 48.36408 | 11.79624 | 1462 ft | 7 kts | 241° |
| 2026-05-06 22:22 | 48.36365 | 11.79530 | 1460 ft | 10 kts | 233° |
| 2026-05-06 22:23 | 48.36324 | 11.79448 | 1463 ft | 11 kts | 232° |
| 2026-05-06 22:23 | 48.36284 | 11.79366 | 1466 ft | 12 kts | 233° |
| 2026-05-06 22:23 | 48.36209 | 11.79300 | 1464 ft | 13 kts | 184° |
| 2026-05-06 22:23 | 48.36113 | 11.79317 | 1464 ft | 14 kts | 173° |
| 2026-05-06 22:24 | 48.36015 | 11.79331 | 1460 ft | 14 kts | 174° |
| 2026-05-06 22:24 | 48.35924 | 11.79352 | 1463 ft | 13 kts | 159° |
| 2026-05-06 22:24 | 48.35842 | 11.79384 | 1464 ft | 12 kts | 171° |
| 2026-05-06 22:24 | 48.35766 | 11.79400 | 1462 ft | 10 kts | 174° |
| 2026-05-06 22:25 | 48.35706 | 11.79408 | 1462 ft | 6 kts | 188° |
| 2026-05-06 22:25 | 48.35687 | 11.79350 | 1462 ft | 7 kts | 260° |
| 2026-05-06 22:25 | 48.35681 | 11.79286 | 1466 ft | 4 kts | 263° |
| 2026-05-06 22:25 | 48.35680 | 11.79272 | 1466 ft | 0 kts | 263° |
| 2026-05-06 22:26 | 48.35680 | 11.79271 | 1466 ft | 0 kts | 263° |